createdAt,value
2018-05-15T00:00:37.115Z,95.27
2018-05-15T00:01:36.943Z,95.36
2018-05-15T00:02:36.944Z,95.56
2018-05-15T00:03:36.964Z,95.46
2018-05-15T00:04:37.214Z,95.94
2018-05-15T00:05:36.892Z,95.94
2018-05-15T00:06:36.926Z,95.56
2018-05-15T00:07:36.956Z,95.56
2018-05-15T00:08:36.842Z,95.75
2018-05-15T00:09:36.828Z,95.84
2018-05-15T00:10:37.115Z,95.65
2018-05-15T00:11:36.812Z,95.65
2018-05-15T00:12:36.837Z,95.75
2018-05-15T00:13:36.891Z,96.13
2018-05-15T00:14:36.753Z,95.65
2018-05-15T00:15:36.745Z,95.94
2018-05-15T00:16:37.028Z,95.94
2018-05-15T00:17:36.707Z,95.94
2018-05-15T00:18:36.753Z,95.70
2018-05-15T00:20:36.766Z,95.51
2018-05-15T00:21:36.747Z,95.70
2018-05-15T00:22:36.948Z,96.37
2018-05-15T00:24:37.022Z,95.79
2018-05-15T00:25:36.702Z,95.89
2018-05-15T00:26:36.572Z,96.27
2018-05-15T00:27:36.864Z,95.79
2018-05-15T00:28:36.841Z,96.37
2018-05-15T00:29:36.525Z,95.79
2018-05-15T00:30:36.773Z,96.46
2018-05-15T00:33:36.467Z,96.08
2018-05-15T00:34:36.455Z,95.98
2018-05-15T00:35:36.735Z,96.46
2018-05-15T00:36:36.517Z,96.37
2018-05-15T00:37:36.512Z,96.08
2018-05-15T00:38:36.495Z,96.27
2018-05-15T00:39:36.380Z,96.37
2018-05-15T00:40:36.360Z,96.46
2018-05-15T00:41:36.355Z,96.46
2018-05-15T00:42:36.634Z,96.46
2018-05-15T00:44:36.356Z,96.46
2018-05-15T00:45:36.389Z,96.51
2018-05-15T00:46:36.281Z,96.32
2018-05-15T00:47:36.257Z,97.17
2018-05-15T00:48:36.241Z,96.51
2018-05-15T00:49:36.532Z,96.61
2018-05-15T00:51:36.296Z,96.41
2018-05-15T00:52:36.219Z,96.22
2018-05-15T00:53:36.163Z,96.03
2018-05-15T00:54:36.146Z,96.51
2018-05-15T00:55:36.124Z,96.41
2018-05-15T00:56:36.409Z,96.41
2018-05-15T00:57:36.147Z,96.41
2018-05-15T00:58:36.192Z,96.41
2018-05-15T00:59:36.086Z,96.51
2018-05-15T01:00:36.053Z,96.41
2018-05-15T01:01:36.041Z,96.22
2018-05-15T01:02:36.021Z,96.41
2018-05-15T01:03:36.460Z,96.22
2018-05-15T01:04:35.988Z,96.61
2018-05-15T01:05:35.967Z,96.03
2018-05-15T01:07:35.944Z,96.51
2018-05-15T01:08:35.922Z,96.41
2018-05-15T01:09:35.961Z,95.94
2018-05-15T01:10:36.338Z,96.36
2018-05-15T01:12:35.859Z,96.17
2018-05-15T01:13:35.846Z,95.75
2018-05-15T01:14:35.829Z,96.36
2018-05-15T01:15:35.807Z,96.08
2018-05-15T01:16:35.905Z,96.17
2018-05-15T01:17:36.126Z,96.46
2018-05-15T01:18:35.860Z,95.79
2018-05-15T01:19:35.748Z,95.70
2018-05-15T01:20:35.727Z,96.36
2018-05-15T01:21:35.718Z,96.17
2018-05-15T01:22:35.771Z,95.70
2018-05-15T01:23:36.036Z,95.79
2018-05-15T01:25:35.655Z,95.70
2018-05-15T01:26:35.644Z,96.46
2018-05-15T01:27:35.616Z,96.36
2018-05-15T01:29:36.035Z,95.61
2018-05-15T01:30:35.583Z,95.94
2018-05-15T01:31:35.578Z,95.84
2018-05-15T01:32:35.534Z,95.36
2018-05-15T01:33:35.520Z,95.03
2018-05-15T01:34:35.509Z,95.17
2018-05-15T01:35:35.838Z,94.41
2018-05-15T01:37:35.509Z,93.84
2018-05-15T01:38:35.489Z,93.37
2018-05-15T01:39:35.420Z,93.74
2018-05-15T01:41:35.696Z,93.46
2018-05-15T01:42:35.380Z,93.74
2018-05-15T01:43:35.456Z,93.17
2018-05-15T01:44:35.501Z,92.79
2018-05-15T01:45:35.428Z,93.46
2018-05-15T01:46:35.565Z,92.98
2018-05-15T01:47:35.594Z,93.08
2018-05-15T01:49:35.314Z,91.84
2018-05-15T01:50:35.297Z,92.13
2018-05-15T01:52:35.267Z,92.50
2018-05-15T01:53:35.197Z,91.74
2018-05-15T01:55:35.614Z,91.84
2018-05-15T01:56:35.141Z,91.65
2018-05-15T01:57:35.129Z,91.84
2018-05-15T01:58:35.108Z,91.74
2018-05-15T02:01:35.476Z,91.84
2018-05-15T02:02:35.099Z,91.55
2018-05-15T02:03:35.081Z,91.94
2018-05-15T02:04:35.021Z,91.31
2018-05-15T02:05:34.992Z,91.51
2018-05-15T02:06:35.083Z,91.65
2018-05-15T02:07:35.015Z,91.79
2018-05-15T02:08:35.304Z,91.74
2018-05-15T02:09:34.931Z,92.03
2018-05-15T02:10:34.921Z,91.55
2018-05-15T02:11:34.897Z,91.46
2018-05-15T02:12:34.881Z,91.99
2018-05-15T02:14:35.191Z,91.70
2018-05-15T02:15:34.875Z,91.79
2018-05-15T02:16:34.830Z,91.74
2018-05-15T02:17:34.801Z,91.70
2018-05-15T02:18:34.771Z,91.31
2018-05-15T02:19:34.759Z,91.60
2018-05-15T02:20:34.796Z,91.70
2018-05-15T02:21:35.078Z,91.41
2018-05-15T02:22:34.759Z,91.79
2018-05-15T02:23:34.690Z,91.99
2018-05-15T02:25:34.657Z,90.56
2018-05-15T02:26:34.789Z,90.65
2018-05-15T02:27:34.625Z,90.36
2018-05-15T02:28:34.904Z,89.51
2018-05-15T02:29:34.584Z,88.84
2018-05-15T02:30:34.605Z,88.84
2018-05-15T02:31:34.560Z,88.75
2018-05-15T02:32:34.582Z,89.08
2018-05-15T02:33:34.567Z,87.98
2018-05-15T02:35:34.837Z,88.46
2018-05-15T02:36:34.466Z,88.46
2018-05-15T02:38:34.438Z,88.65
2018-05-15T02:39:34.469Z,89.51
2018-05-15T02:42:34.716Z,89.61
2018-05-15T02:44:34.391Z,89.79
2018-05-15T02:45:34.412Z,89.32
2018-05-15T02:46:34.308Z,89.51
2018-05-15T02:47:34.276Z,89.61
2018-05-15T02:48:34.266Z,88.93
2018-05-15T02:49:34.552Z,89.32
2018-05-15T02:51:34.259Z,89.03
2018-05-15T02:52:34.239Z,88.37
2018-05-15T02:53:34.376Z,88.84
2018-05-15T02:54:34.159Z,89.13
2018-05-15T02:55:34.461Z,88.93
2018-05-15T02:56:34.129Z,89.03
2018-05-15T02:57:34.103Z,88.93
2018-05-15T02:58:34.093Z,88.65
2018-05-15T02:59:34.120Z,88.46
2018-05-15T03:00:34.109Z,88.37
2018-05-15T03:01:34.395Z,88.46
2018-05-15T03:02:34.020Z,88.65
2018-05-15T03:03:34.013Z,89.13
2018-05-15T03:04:33.979Z,88.27
2018-05-15T03:05:34.013Z,88.37
2018-05-15T03:06:34.001Z,88.27
2018-05-15T03:08:34.211Z,88.37
2018-05-15T03:09:33.894Z,87.98
2018-05-15T03:10:33.886Z,87.89
2018-05-15T03:11:33.953Z,87.51
2018-05-15T03:12:33.900Z,87.89
2018-05-15T03:13:33.875Z,87.98
2018-05-15T03:14:34.117Z,86.84
2018-05-15T03:15:33.794Z,86.55
2018-05-15T03:16:33.873Z,85.80
2018-05-15T03:17:33.806Z,85.70
2018-05-15T03:18:33.800Z,85.89
2018-05-15T03:19:33.780Z,85.18
2018-05-15T03:20:34.005Z,85.51
2018-05-15T03:21:33.693Z,85.22
2018-05-15T03:23:33.804Z,85.22
2018-05-15T03:24:33.687Z,84.56
2018-05-15T03:25:33.672Z,84.70
2018-05-15T03:27:33.880Z,84.42
2018-05-15T03:28:33.664Z,85.28
2018-05-15T03:29:33.604Z,85.32
2018-05-15T03:30:33.593Z,84.89
2018-05-15T03:31:33.563Z,84.70
2018-05-15T03:32:33.508Z,84.80
2018-05-15T03:33:33.486Z,83.98
2018-05-15T03:34:33.764Z,84.33
2018-05-15T03:36:33.482Z,84.33
2018-05-15T03:37:33.464Z,84.52
2018-05-15T03:38:33.404Z,84.04
2018-05-15T03:39:33.374Z,83.61
2018-05-15T03:40:33.354Z,83.70
2018-05-15T03:41:33.636Z,84.27
2018-05-15T03:42:33.379Z,83.65
2018-05-15T03:43:33.354Z,83.98
2018-05-15T03:44:33.285Z,83.41
2018-05-15T03:45:33.267Z,83.22
2018-05-15T03:46:33.255Z,82.84
2018-05-15T03:47:33.343Z,82.65
2018-05-15T03:48:33.574Z,83.41
2018-05-15T03:49:33.247Z,83.47
2018-05-15T03:50:33.338Z,83.18
2018-05-15T03:51:33.166Z,82.84
2018-05-15T03:52:33.158Z,82.93
2018-05-15T03:53:33.136Z,83.13
2018-05-15T03:54:33.167Z,83.32
2018-05-15T03:55:33.513Z,83.51
2018-05-15T03:56:33.081Z,84.65
2018-05-15T03:57:33.364Z,84.33
2018-05-15T03:58:33.046Z,84.33
2018-05-15T04:00:33.122Z,84.04
2018-05-15T04:01:33.045Z,82.80
2018-05-15T04:02:33.326Z,82.99
2018-05-15T04:03:32.962Z,81.66
2018-05-15T04:04:32.948Z,81.47
2018-05-15T04:05:32.919Z,81.09
2018-05-15T04:06:32.964Z,80.42
2018-05-15T04:07:32.940Z,80.61
2018-05-15T04:08:32.948Z,80.23
2018-05-15T04:09:33.158Z,80.23
2018-05-15T04:10:32.837Z,80.13
2018-05-15T04:11:32.820Z,80.23
2018-05-15T04:12:32.799Z,79.94
2018-05-15T04:13:32.839Z,79.85
2018-05-15T04:14:33.217Z,79.66
2018-05-15T04:15:32.811Z,79.38
2018-05-15T04:16:33.040Z,79.19
2018-05-15T04:17:32.716Z,78.99
2018-05-15T04:18:32.793Z,78.61
2018-05-15T04:19:32.680Z,78.61
2018-05-15T04:20:32.704Z,78.80
2018-05-15T04:21:32.695Z,79.57
2018-05-15T04:22:33.083Z,79.57
2018-05-15T04:24:32.590Z,79.99
2018-05-15T04:25:32.692Z,80.36
2018-05-15T04:26:32.552Z,81.03
2018-05-15T04:27:32.582Z,81.41
2018-05-15T04:28:32.864Z,81.41
2018-05-15T04:29:32.555Z,81.23
2018-05-15T04:30:32.491Z,80.36
2018-05-15T04:31:32.464Z,80.55
2018-05-15T04:32:32.443Z,80.46
2018-05-15T04:33:32.477Z,79.55
2018-05-15T04:34:32.774Z,80.27
2018-05-15T04:35:32.408Z,81.26
2018-05-15T04:36:32.392Z,82.03
2018-05-15T04:37:32.369Z,82.31
2018-05-15T04:38:32.361Z,82.03
2018-05-15T04:39:32.381Z,82.21
2018-05-15T04:40:33.013Z,81.84
2018-05-15T04:41:32.288Z,81.55
2018-05-15T04:42:32.277Z,81.26
2018-05-15T04:43:32.291Z,80.98
2018-05-15T04:44:32.237Z,81.36
2018-05-15T04:45:32.226Z,81.26
2018-05-15T04:46:32.662Z,81.49
2018-05-15T04:47:32.189Z,81.88
2018-05-15T04:48:32.176Z,81.68
2018-05-15T04:49:32.155Z,81.40
2018-05-15T04:50:32.140Z,81.68
2018-05-15T04:51:32.128Z,81.97
2018-05-15T04:53:32.461Z,82.17
2018-05-15T04:54:32.130Z,82.17
2018-05-15T04:55:32.123Z,82.07
2018-05-15T04:56:32.046Z,82.73
2018-05-15T04:57:32.023Z,82.87
2018-05-15T04:58:32.006Z,83.54
2018-05-15T04:59:32.338Z,83.06
2018-05-15T05:00:32.026Z,83.64
2018-05-15T05:01:32.004Z,83.44
2018-05-15T05:02:31.938Z,83.35
2018-05-15T05:03:31.916Z,83.64
2018-05-15T05:04:31.909Z,83.64
2018-05-15T05:05:31.939Z,83.92
2018-05-15T05:06:32.216Z,83.77
2018-05-15T05:07:31.856Z,83.48
2018-05-15T05:08:31.839Z,84.25
2018-05-15T05:09:31.917Z,84.63
2018-05-15T05:10:31.807Z,84.63
2018-05-15T05:11:31.842Z,85.01
2018-05-15T05:12:31.821Z,85.30
2018-05-15T05:13:32.051Z,85.49
2018-05-15T05:15:31.717Z,85.63
2018-05-15T05:16:31.710Z,85.34
2018-05-15T05:17:31.842Z,85.44
2018-05-15T05:18:31.677Z,85.72
2018-05-15T05:19:31.956Z,85.34
2018-05-15T05:20:31.899Z,86.01
2018-05-15T05:21:31.632Z,86.20
2018-05-15T05:23:31.596Z,86.43
2018-05-15T05:24:31.586Z,87.01
2018-05-15T05:26:32.003Z,86.24
2018-05-15T05:28:31.576Z,86.43
2018-05-15T05:29:31.506Z,86.34
2018-05-15T05:30:31.488Z,86.05
2018-05-15T05:31:31.469Z,86.19
2018-05-15T05:32:31.506Z,86.10
2018-05-15T05:33:31.787Z,87.05
2018-05-15T05:34:31.419Z,88.01
2018-05-15T05:35:31.412Z,88.39
2018-05-15T05:36:31.393Z,89.06
2018-05-15T05:37:31.391Z,89.58
2018-05-15T05:38:31.522Z,88.87
2018-05-15T05:39:31.716Z,88.91
2018-05-15T05:40:33.743Z,89.01
2018-05-15T05:41:31.328Z,89.48
2018-05-15T05:42:31.305Z,88.62
2018-05-15T05:43:31.288Z,89.58
2018-05-15T05:45:31.568Z,91.11
2018-05-15T05:46:31.429Z,91.25
2018-05-15T05:47:31.333Z,91.73
2018-05-15T05:48:31.235Z,91.06
2018-05-15T05:49:31.201Z,92.11
2018-05-15T05:50:31.189Z,91.92
2018-05-15T05:51:31.467Z,93.16
2018-05-15T05:52:31.388Z,92.88
2018-05-15T05:53:32.608Z,92.97
2018-05-15T05:54:31.574Z,93.35
2018-05-15T05:55:31.124Z,93.84
2018-05-15T05:56:31.096Z,93.02
2018-05-15T05:57:31.093Z,93.59
2018-05-15T05:58:31.436Z,95.12
2018-05-15T05:59:31.110Z,94.26
2018-05-15T06:00:31.095Z,95.03
2018-05-15T06:01:31.030Z,94.93
2018-05-15T06:02:31.023Z,94.89
2018-05-15T06:03:30.996Z,94.50
2018-05-15T06:04:31.343Z,94.98
2018-05-15T06:05:31.040Z,96.13
2018-05-15T06:06:30.956Z,95.36
2018-05-15T06:07:30.941Z,96.42
2018-05-15T06:09:30.934Z,96.13
2018-05-15T06:10:31.347Z,95.70
2018-05-15T06:11:30.959Z,95.51
2018-05-15T06:12:30.936Z,95.70
2018-05-15T06:13:30.858Z,96.47
2018-05-15T06:14:30.846Z,95.70
2018-05-15T06:15:30.840Z,95.89
2018-05-15T06:16:31.126Z,95.98
2018-05-15T06:17:31.001Z,96.08
2018-05-15T06:18:30.799Z,96.27
2018-05-15T06:19:30.801Z,97.14
2018-05-15T06:20:31.324Z,95.98
2018-05-15T06:21:30.867Z,96.22
2018-05-15T06:22:31.184Z,95.46
2018-05-15T06:23:30.902Z,96.89
2018-05-15T06:24:30.988Z,97.09
2018-05-15T06:25:30.725Z,97.66
2018-05-15T06:26:30.696Z,96.61
2018-05-15T06:27:30.994Z,98.14
2018-05-15T06:28:30.963Z,97.76
2018-05-15T06:29:30.716Z,97.61
2018-05-15T06:30:30.741Z,97.81
2018-05-15T06:31:30.684Z,97.14
2018-05-15T06:32:30.777Z,98.00
2018-05-15T06:33:30.610Z,97.61
2018-05-15T06:34:30.594Z,97.66
2018-05-15T06:35:30.948Z,97.76
2018-05-15T06:36:30.615Z,97.86
2018-05-15T06:37:30.601Z,97.95
2018-05-15T06:38:30.624Z,97.95
2018-05-15T06:39:30.531Z,97.14
2018-05-15T06:40:30.613Z,98.10
2018-05-15T06:41:30.816Z,96.75
2018-05-15T06:42:30.561Z,97.04
2018-05-15T06:43:30.579Z,96.85
2018-05-15T06:44:30.564Z,96.56
2018-05-15T06:45:30.459Z,96.85
2018-05-15T06:46:30.440Z,96.70
2018-05-15T06:47:30.734Z,96.85
2018-05-15T06:48:30.565Z,97.04
2018-05-15T06:49:30.475Z,96.42
2018-05-15T06:50:30.459Z,96.51
2018-05-15T06:51:30.385Z,96.03
2018-05-15T06:52:30.372Z,95.84
2018-05-15T06:53:30.656Z,95.65
2018-05-15T06:54:30.341Z,95.55
2018-05-15T06:55:30.443Z,95.55
2018-05-15T06:56:30.508Z,95.75
2018-05-15T06:57:30.314Z,95.45
2018-05-15T06:58:30.302Z,94.78
2018-05-15T06:59:30.319Z,94.73
2018-05-15T07:00:30.582Z,94.83
2018-05-15T07:01:30.314Z,93.10
2018-05-15T07:02:30.305Z,93.68
2018-05-15T07:03:30.365Z,93.96
2018-05-15T07:04:30.231Z,93.15
2018-05-15T07:05:30.217Z,93.53
2018-05-15T07:06:30.505Z,91.90
2018-05-15T07:07:30.204Z,89.88
2018-05-15T07:08:30.244Z,89.59
2018-05-15T07:09:30.933Z,88.63
2018-05-15T07:11:30.149Z,90.98
2018-05-15T07:12:30.449Z,90.79
2018-05-15T07:13:30.136Z,89.64
2018-05-15T07:14:30.186Z,90.50
2018-05-15T07:15:30.178Z,88.77
2018-05-15T07:16:30.162Z,85.98
2018-05-15T07:17:30.097Z,85.60
2018-05-15T07:18:30.383Z,86.12
2018-05-15T07:19:30.129Z,86.31
2018-05-15T07:20:30.058Z,87.85
2018-05-15T07:21:30.105Z,86.31
2018-05-15T07:22:30.194Z,85.25
2018-05-15T07:23:30.132Z,82.27
2018-05-15T07:24:30.064Z,82.31
2018-05-15T07:25:30.409Z,83.85
2018-05-15T07:26:29.997Z,82.93
2018-05-15T07:27:33.192Z,81.20
2018-05-15T07:28:29.988Z,78.15
2018-05-15T07:29:30.013Z,74.62
2018-05-15T07:30:29.959Z,72.02
2018-05-15T07:31:30.245Z,69.74
2018-05-15T07:32:29.938Z,68.04
2018-05-15T07:33:29.973Z,67.07
2018-05-15T07:34:30.323Z,63.15
2018-05-15T07:35:29.900Z,60.47
2018-05-15T07:36:29.900Z,58.95
2018-05-15T07:37:30.198Z,57.70
2018-05-15T07:38:29.883Z,57.51
2018-05-15T07:39:29.864Z,57.31
2018-05-15T07:40:29.910Z,58.25
2018-05-15T07:41:29.900Z,57.19
2018-05-15T07:42:29.845Z,57.38
2018-05-15T07:43:30.137Z,57.87
2018-05-15T07:44:29.823Z,57.74
2018-05-15T07:45:29.819Z,58.19
2018-05-15T07:46:29.909Z,60.44
2018-05-15T07:47:29.848Z,59.00
2018-05-15T07:48:29.839Z,58.51
2018-05-15T07:49:30.036Z,57.16
2018-05-15T07:50:29.788Z,55.81
2018-05-15T07:51:29.778Z,56.61
2018-05-15T07:52:29.800Z,56.32
2018-05-15T07:53:29.793Z,55.55
2018-05-15T07:54:29.750Z,55.26
2018-05-15T07:55:30.085Z,56.45
2018-05-15T07:56:29.725Z,56.57
2018-05-15T07:57:29.720Z,53.96
2018-05-15T07:58:29.751Z,54.85
2018-05-15T07:59:29.743Z,53.59
2018-05-15T08:01:29.994Z,50.92
2018-05-15T08:02:29.673Z,50.94
2018-05-15T08:03:29.669Z,50.77
2018-05-15T08:04:29.768Z,49.02
2018-05-15T08:05:29.705Z,48.00
2018-05-15T08:06:29.707Z,47.03
2018-05-15T08:07:29.635Z,46.96
2018-05-15T08:08:29.935Z,45.75
2018-05-15T08:09:29.619Z,44.48
2018-05-15T08:10:29.620Z,42.56
2018-05-15T08:11:29.663Z,42.27
2018-05-15T08:12:33.756Z,41.42
2018-05-15T08:13:29.600Z,42.10
2018-05-15T08:14:29.605Z,42.90
2018-05-15T08:15:29.882Z,40.68
2018-05-15T08:16:29.590Z,39.51
2018-05-15T08:17:29.572Z,37.76
2018-05-15T08:18:29.625Z,37.37
2018-05-15T08:19:32.249Z,38.03
2018-05-15T08:20:29.569Z,38.50
2018-05-15T08:21:29.856Z,38.79
2018-05-15T08:22:29.637Z,39.84
2018-05-15T08:23:29.542Z,39.62
2018-05-15T08:24:29.541Z,40.33
2018-05-15T08:25:29.592Z,40.42
2018-05-15T08:26:29.580Z,40.23
2018-05-15T08:27:29.886Z,39.47
2018-05-15T08:28:29.526Z,38.79
2018-05-15T08:29:29.520Z,38.98
2018-05-15T08:30:29.516Z,38.50
2018-05-15T08:31:29.578Z,38.39
2018-05-15T08:32:29.764Z,38.70
2018-05-15T08:33:29.807Z,37.43
2018-05-15T08:34:29.506Z,36.67
2018-05-15T08:35:29.504Z,35.81
2018-05-15T08:36:29.509Z,35.15
2018-05-15T08:37:29.567Z,34.56
2018-05-15T08:38:29.545Z,35.46
2018-05-15T08:39:29.848Z,33.43
2018-05-15T08:40:29.553Z,33.34
2018-05-15T08:41:29.473Z,33.25
2018-05-15T08:42:29.494Z,32.67
2018-05-15T08:43:29.472Z,32.45
2018-05-15T08:44:29.475Z,33.22
2018-05-15T08:45:29.971Z,32.53
2018-05-15T08:46:29.618Z,33.23
2018-05-15T08:47:29.467Z,33.06
2018-05-15T08:48:30.424Z,32.57
2018-05-15T08:49:29.460Z,31.88
2018-05-15T08:50:29.464Z,31.79
2018-05-15T08:51:29.800Z,31.79
2018-05-15T08:52:29.503Z,32.81
2018-05-15T08:53:29.565Z,33.61
2018-05-15T08:54:29.444Z,33.92
2018-05-15T08:55:29.445Z,32.76
2018-05-15T08:56:29.449Z,30.73
2018-05-15T08:57:29.741Z,31.90
2018-05-15T08:58:30.203Z,31.52
2018-05-15T08:59:29.444Z,31.62
2018-05-15T09:00:29.440Z,31.92
2018-05-15T09:01:29.443Z,30.86
2018-05-15T09:02:29.442Z,29.49
2018-05-15T09:03:29.754Z,29.39
2018-05-15T09:04:29.511Z,30.09
2018-05-15T09:05:29.546Z,29.50
2018-05-15T09:06:29.482Z,30.09
2018-05-15T09:07:29.438Z,30.88
2018-05-15T09:08:29.441Z,30.41
2018-05-15T09:09:29.740Z,29.53
2018-05-15T09:10:29.486Z,29.25
2018-05-15T09:11:29.485Z,30.23
2018-05-15T09:12:29.439Z,29.16
2018-05-15T09:13:29.437Z,28.94
2018-05-15T09:14:29.429Z,29.13
2018-05-15T09:15:30.396Z,29.11
2018-05-15T09:16:29.527Z,29.90
2018-05-15T09:17:29.585Z,29.80
2018-05-15T09:18:29.432Z,30.48
2018-05-15T09:19:29.509Z,29.42
2018-05-15T09:20:29.493Z,29.20
2018-05-15T09:21:29.796Z,29.38
2018-05-15T09:22:29.484Z,29.28
2018-05-15T09:23:29.447Z,29.17
2018-05-15T09:24:29.439Z,29.27
2018-05-15T09:25:29.433Z,28.89
2018-05-15T09:26:29.493Z,28.52
2018-05-15T09:27:29.838Z,28.42
2018-05-15T09:28:29.495Z,28.79
2018-05-15T09:29:29.444Z,29.02
2018-05-15T09:30:29.432Z,26.88
2018-05-15T09:31:29.508Z,27.58
2018-05-15T09:32:29.582Z,27.87
2018-05-15T09:33:29.841Z,26.70
2018-05-15T09:34:29.522Z,25.83
2018-05-15T09:35:29.451Z,24.07
2018-05-15T09:36:29.500Z,24.05
2018-05-15T09:37:29.443Z,25.32
2018-05-15T09:38:29.994Z,25.89
2018-05-15T09:39:29.899Z,26.45
2018-05-15T09:40:29.496Z,26.84
2018-05-15T09:41:29.451Z,27.01
2018-05-15T09:42:29.442Z,27.12
2018-05-15T09:43:29.521Z,26.54
2018-05-15T09:44:29.514Z,25.88
2018-05-15T09:45:29.801Z,26.57
2018-05-15T09:46:29.495Z,26.09
2018-05-15T09:47:29.448Z,26.66
2018-05-15T09:48:29.454Z,25.31
2018-05-15T09:49:29.469Z,25.02
2018-05-15T09:50:29.474Z,25.52
2018-05-15T09:51:29.811Z,25.42
2018-05-15T09:52:29.500Z,25.79
2018-05-15T09:53:29.458Z,25.40
2018-05-15T09:54:29.453Z,26.39
2018-05-15T09:55:29.452Z,25.32
2018-05-15T09:56:29.460Z,25.42
2018-05-15T09:57:29.913Z,24.82
2018-05-15T09:58:29.518Z,24.32
2018-05-15T09:59:29.518Z,24.90
2018-05-15T10:00:29.474Z,24.91
2018-05-15T10:01:29.474Z,24.64
2018-05-15T10:02:29.462Z,24.54
2018-05-15T10:03:29.772Z,24.64
2018-05-15T10:04:29.521Z,23.68
2018-05-15T10:05:30.177Z,23.76
2018-05-15T10:06:29.472Z,24.33
2018-05-15T10:07:29.475Z,24.82
2018-05-15T10:08:29.479Z,24.64
2018-05-15T10:09:29.783Z,25.83
2018-05-15T10:10:29.477Z,24.57
2018-05-15T10:11:29.537Z,23.81
2018-05-15T10:12:30.122Z,22.63
2018-05-15T10:13:29.536Z,24.07
2018-05-15T10:14:29.482Z,24.75
2018-05-15T10:15:29.795Z,23.96
2018-05-15T10:16:29.490Z,25.32
2018-05-15T10:17:29.519Z,26.37
2018-05-15T10:18:30.940Z,25.70
2018-05-15T10:19:29.491Z,25.90
2018-05-15T10:20:29.500Z,26.78
2018-05-15T10:21:29.804Z,26.40
2018-05-15T10:22:29.511Z,25.83
2018-05-15T10:23:29.508Z,25.06
2018-05-15T10:24:30.407Z,24.97
2018-05-15T10:25:29.509Z,24.87
2018-05-15T10:26:29.508Z,25.48
2018-05-15T10:27:29.810Z,25.89
2018-05-15T10:28:29.530Z,23.25
2018-05-15T10:29:29.511Z,23.25
2018-05-15T10:30:29.562Z,22.67
2018-05-15T10:31:29.572Z,24.03
2018-05-15T10:32:29.562Z,23.23
2018-05-15T10:33:29.815Z,24.59
2018-05-15T10:34:29.528Z,24.80
2018-05-15T10:35:29.522Z,23.83
2018-05-15T10:36:29.536Z,24.92
2018-05-15T10:37:29.575Z,24.05
2018-05-15T10:38:29.578Z,22.77
2018-05-15T10:39:29.901Z,23.45
2018-05-15T10:40:29.538Z,24.03
2018-05-15T10:41:29.548Z,23.21
2018-05-15T10:42:31.543Z,25.13
2018-05-15T10:43:29.603Z,26.84
2018-05-15T10:44:29.604Z,28.08
2018-05-15T10:45:29.905Z,29.40
2018-05-15T10:46:29.555Z,30.47
2018-05-15T10:47:29.607Z,30.31
2018-05-15T10:48:29.684Z,29.35
2018-05-15T10:49:29.563Z,30.35
2018-05-15T10:50:29.716Z,28.81
2018-05-15T10:51:29.908Z,27.95
2018-05-15T10:52:29.566Z,27.47
2018-05-15T10:53:29.589Z,27.37
2018-05-15T10:54:29.812Z,26.90
2018-05-15T10:55:29.565Z,26.05
2018-05-15T10:56:29.617Z,25.72
2018-05-15T10:57:29.917Z,26.54
2018-05-15T10:58:29.579Z,27.54
2018-05-15T10:59:29.605Z,26.88
2018-05-15T11:00:29.580Z,24.85
2018-05-15T11:01:29.571Z,24.77
2018-05-15T11:02:29.639Z,25.32
2018-05-15T11:03:29.925Z,27.03
2018-05-15T11:04:29.639Z,28.28
2018-05-15T11:05:29.852Z,29.43
2018-05-15T11:06:29.588Z,29.79
2018-05-15T11:07:29.584Z,31.82
2018-05-15T11:08:29.659Z,32.50
2018-05-15T11:09:29.937Z,32.49
2018-05-15T11:11:29.690Z,32.02
2018-05-15T11:12:29.693Z,30.46
2018-05-15T11:13:29.580Z,30.67
2018-05-15T11:14:29.646Z,30.18
2018-05-15T11:15:33.098Z,29.17
2018-05-15T11:16:29.597Z,27.64
2018-05-15T11:17:29.586Z,26.98
2018-05-15T11:18:29.589Z,26.78
2018-05-15T11:19:29.600Z,27.03
2018-05-15T11:20:29.870Z,28.20
2018-05-15T11:21:29.938Z,28.78
2018-05-15T11:22:29.640Z,30.60
2018-05-15T11:23:32.008Z,30.28
2018-05-15T11:24:29.602Z,30.44
2018-05-15T11:25:29.578Z,31.97
2018-05-15T11:26:29.596Z,33.41
2018-05-15T11:27:29.904Z,33.39
2018-05-15T11:28:29.591Z,33.88
2018-05-15T11:29:29.686Z,34.36
2018-05-15T11:30:29.641Z,34.48
2018-05-15T11:31:29.589Z,32.50
2018-05-15T11:32:29.600Z,30.90
2018-05-15T11:34:29.876Z,28.45
2018-05-15T11:35:29.683Z,26.82
2018-05-15T11:36:29.627Z,25.95
2018-05-15T11:37:29.637Z,25.77
2018-05-15T11:38:29.761Z,25.88
2018-05-15T11:39:29.570Z,26.42
2018-05-15T11:40:29.889Z,28.13
2018-05-15T11:41:29.711Z,28.86
2018-05-15T11:42:29.674Z,29.22
2018-05-15T11:43:29.839Z,29.60
2018-05-15T11:44:29.586Z,30.47
2018-05-15T11:45:29.571Z,30.13
2018-05-15T11:46:29.873Z,27.05
2018-05-15T11:47:29.605Z,29.28
2018-05-15T11:48:30.047Z,28.18
2018-05-15T11:49:30.761Z,28.14
2018-05-15T11:50:30.169Z,29.89
2018-05-15T11:51:30.451Z,29.14
2018-05-15T11:52:30.496Z,27.62
2018-05-15T11:53:29.587Z,26.88
2018-05-15T11:54:29.582Z,24.74
2018-05-15T11:55:35.292Z,25.11
2018-05-15T11:56:29.680Z,27.36
2018-05-15T11:57:29.584Z,25.44
2018-05-15T11:58:29.877Z,25.27
2018-05-15T11:59:29.577Z,24.30
2018-05-15T12:00:29.576Z,25.33
2018-05-15T12:01:29.724Z,25.05
2018-05-15T12:02:29.607Z,24.58
2018-05-15T12:03:29.587Z,24.38
2018-05-15T12:04:29.876Z,24.97
2018-05-15T12:05:29.636Z,25.72
2018-05-15T12:06:29.970Z,25.88
2018-05-15T12:07:29.747Z,27.50
2018-05-15T12:08:29.782Z,29.11
2018-05-15T12:09:29.749Z,29.86
2018-05-15T12:10:29.933Z,30.44
2018-05-15T12:11:29.838Z,32.00
2018-05-15T12:12:29.591Z,31.58
2018-05-15T12:13:29.586Z,31.47
2018-05-15T12:14:29.592Z,31.65
2018-05-15T12:15:29.599Z,32.41
2018-05-15T12:16:29.615Z,32.89
2018-05-15T12:17:29.948Z,33.09
2018-05-15T12:18:29.694Z,33.46
2018-05-15T12:19:29.596Z,33.46
2018-05-15T12:20:29.592Z,33.86
2018-05-15T12:22:29.579Z,34.44
2018-05-15T12:23:32.238Z,34.23
2018-05-15T12:24:29.777Z,33.94
2018-05-15T12:25:29.577Z,34.64
2018-05-15T12:26:29.577Z,34.35
2018-05-15T12:27:29.577Z,34.64
2018-05-15T12:28:29.576Z,34.16
2018-05-15T12:29:29.925Z,33.31
2018-05-15T12:30:29.613Z,31.14
2018-05-15T12:31:29.565Z,30.28
2018-05-15T12:32:29.563Z,30.77
2018-05-15T12:33:29.561Z,29.69
2018-05-15T12:34:29.557Z,30.57
2018-05-15T12:35:32.261Z,30.36
2018-05-15T12:36:29.562Z,32.02
2018-05-15T12:37:29.549Z,32.59
2018-05-15T12:38:29.549Z,32.00
2018-05-15T12:39:29.540Z,31.88
2018-05-15T12:40:29.541Z,32.96
2018-05-15T12:41:32.357Z,32.55
2018-05-15T12:42:29.537Z,33.33
2018-05-15T12:43:29.548Z,34.98
2018-05-15T12:44:29.535Z,33.90
2018-05-15T12:45:29.522Z,33.70
2018-05-15T12:46:29.523Z,34.08
2018-05-15T12:47:30.082Z,35.24
2018-05-15T12:48:29.604Z,35.71
2018-05-15T12:49:29.517Z,36.58
2018-05-15T12:50:29.508Z,36.46
2018-05-15T12:51:29.512Z,36.27
2018-05-15T12:52:29.509Z,35.59
2018-05-15T12:53:29.854Z,35.40
2018-05-15T12:54:29.552Z,35.96
2018-05-15T12:55:29.500Z,35.86
2018-05-15T12:56:29.492Z,36.36
2018-05-15T12:57:29.489Z,36.25
2018-05-15T12:58:29.492Z,36.87
2018-05-15T12:59:30.382Z,35.51
2018-05-15T13:00:29.475Z,35.14
2018-05-15T13:01:29.471Z,34.67
2018-05-15T13:02:29.462Z,33.85
2018-05-15T13:03:29.460Z,33.23
2018-05-15T13:04:29.606Z,29.77
2018-05-15T13:05:30.065Z,30.08
2018-05-15T13:06:29.502Z,29.75
2018-05-15T13:07:29.530Z,29.93
2018-05-15T13:08:29.516Z,29.82
2018-05-15T13:09:29.447Z,30.47
2018-05-15T13:10:29.445Z,31.53
2018-05-15T13:11:29.791Z,31.98
2018-05-15T13:12:29.490Z,33.70
2018-05-15T13:13:29.485Z,33.88
2018-05-15T13:14:29.423Z,35.03
2018-05-15T13:15:29.423Z,34.35
2018-05-15T13:16:29.425Z,35.69
2018-05-15T13:17:29.468Z,36.46
2018-05-15T13:18:30.018Z,36.76
2018-05-15T13:19:29.473Z,36.95
2018-05-15T13:20:29.409Z,36.56
2018-05-15T13:21:29.415Z,36.36
2018-05-15T13:23:29.400Z,36.27
2018-05-15T13:24:29.887Z,37.82
2018-05-15T13:25:29.456Z,37.43
2018-05-15T13:26:29.392Z,36.85
2018-05-15T13:27:29.384Z,37.82
2018-05-15T13:28:29.378Z,38.02
2018-05-15T13:29:29.367Z,37.51
2018-05-15T13:30:29.713Z,37.61
2018-05-15T13:31:29.470Z,37.40
2018-05-15T13:32:29.361Z,38.64
2018-05-15T13:33:29.354Z,38.73
2018-05-15T13:34:29.359Z,38.93
2018-05-15T13:35:29.485Z,39.32
2018-05-15T13:36:29.793Z,38.93